sensor_id;sensor_type;location;lat;lon;timestamp;temperature;humidity
31113;DHT22;17763;48.730;9.136;2023-03-14T00:01:30;10.70;99.90
31113;DHT22;17763;48.730;9.136;2023-03-14T00:03:56;10.70;99.90
31113;DHT22;17763;48.730;9.136;2023-03-14T00:06:22;10.60;99.90
31113;DHT22;17763;48.730;9.136;2023-03-14T00:08:48;10.80;99.90
31113;DHT22;17763;48.730;9.136;2023-03-14T00:11:20;10.60;99.90
31113;DHT22;17763;48.730;9.136;2023-03-14T00:13:48;10.70;99.90
31113;DHT22;17763;48.730;9.136;2023-03-14T00:16:14;10.70;99.90
31113;DHT22;17763;48.730;9.136;2023-03-14T00:18:40;10.70;99.90
31113;DHT22;17763;48.730;9.136;2023-03-14T00:21:07;10.60;99.90
31113;DHT22;17763;48.730;9.136;2023-03-14T00:23:35;10.70;99.90
31113;DHT22;17763;48.730;9.136;2023-03-14T00:26:16;10.60;99.90
31113;DHT22;17763;48.730;9.136;2023-03-14T00:28:42;10.70;99.90
31113;DHT22;17763;48.730;9.136;2023-03-14T00:31:10;10.70;99.90
31113;DHT22;17763;48.730;9.136;2023-03-14T00:33:36;10.60;99.90
31113;DHT22;17763;48.730;9.136;2023-03-14T00:36:05;10.70;99.90
31113;DHT22;17763;48.730;9.136;2023-03-14T00:38:32;10.70;99.90
31113;DHT22;17763;48.730;9.136;2023-03-14T00:41:03;10.70;99.90
31113;DHT22;17763;48.730;9.136;2023-03-14T00:43:28;10.70;99.90
31113;DHT22;17763;48.730;9.136;2023-03-14T00:45:54;10.70;99.90
31113;DHT22;17763;48.730;9.136;2023-03-14T00:48:20;10.70;99.90
31113;DHT22;17763;48.730;9.136;2023-03-14T00:50:49;10.70;99.90
31113;DHT22;17763;48.730;9.136;2023-03-14T00:53:15;10.70;99.90
31113;DHT22;17763;48.730;9.136;2023-03-14T00:55:42;10.60;99.90
31113;DHT22;17763;48.730;9.136;2023-03-14T00:58:12;10.70;99.90
31113;DHT22;17763;48.730;9.136;2023-03-14T01:00:38;10.70;99.90
31113;DHT22;17763;48.730;9.136;2023-03-14T01:03:07;10.60;99.90
31113;DHT22;17763;48.730;9.136;2023-03-14T01:05:33;10.70;99.90
31113;DHT22;17763;48.730;9.136;2023-03-14T01:07:59;10.60;99.90
31113;DHT22;17763;48.730;9.136;2023-03-14T01:10:25;10.60;99.90
31113;DHT22;17763;48.730;9.136;2023-03-14T01:12:51;10.60;99.90
31113;DHT22;17763;48.730;9.136;2023-03-14T01:15:17;10.60;99.90
31113;DHT22;17763;48.730;9.136;2023-03-14T01:17:42;10.60;99.90
31113;DHT22;17763;48.730;9.136;2023-03-14T01:20:12;10.60;99.90
31113;DHT22;17763;48.730;9.136;2023-03-14T01:22:42;10.60;99.90
31113;DHT22;17763;48.730;9.136;2023-03-14T01:25:14;10.60;99.90
31113;DHT22;17763;48.730;9.136;2023-03-14T01:27:40;10.60;99.90
31113;DHT22;17763;48.730;9.136;2023-03-14T01:30:06;10.60;99.90
31113;DHT22;17763;48.730;9.136;2023-03-14T01:32:34;10.50;99.90
31113;DHT22;17763;48.730;9.136;2023-03-14T01:34:59;10.60;99.90
31113;DHT22;17763;48.730;9.136;2023-03-14T01:37:27;10.50;99.90
31113;DHT22;17763;48.730;9.136;2023-03-14T01:39:53;10.60;99.90
31113;DHT22;17763;48.730;9.136;2023-03-14T01:42:18;10.60;99.90
31113;DHT22;17763;48.730;9.136;2023-03-14T01:44:53;10.50;99.90
31113;DHT22;17763;48.730;9.136;2023-03-14T01:47:20;10.50;99.90
31113;DHT22;17763;48.730;9.136;2023-03-14T01:50:04;10.50;99.90
31113;DHT22;17763;48.730;9.136;2023-03-14T01:52:46;10.50;99.90
31113;DHT22;17763;48.730;9.136;2023-03-14T01:55:15;10.50;99.90
31113;DHT22;17763;48.730;9.136;2023-03-14T01:57:57;10.50;99.90
31113;DHT22;17763;48.730;9.136;2023-03-14T02:00:24;10.50;99.90
31113;DHT22;17763;48.730;9.136;2023-03-14T02:02:53;10.40;99.90
31113;DHT22;17763;48.730;9.136;2023-03-14T02:05:24;10.40;99.90
31113;DHT22;17763;48.730;9.136;2023-03-14T02:07:53;10.30;99.90
31113;DHT22;17763;48.730;9.136;2023-03-14T02:10:22;10.40;99.90
31113;DHT22;17763;48.730;9.136;2023-03-14T02:12:49;10.30;99.90
31113;DHT22;17763;48.730;9.136;2023-03-14T02:15:16;10.30;99.90
31113;DHT22;17763;48.730;9.136;2023-03-14T02:17:45;10.30;99.90
31113;DHT22;17763;48.730;9.136;2023-03-14T02:23:08;10.30;99.90
31113;DHT22;17763;48.730;9.136;2023-03-14T02:25:42;10.30;99.90
31113;DHT22;17763;48.730;9.136;2023-03-14T02:28:11;10.30;99.90
31113;DHT22;17763;48.730;9.136;2023-03-14T02:30:38;10.30;99.90
31113;DHT22;17763;48.730;9.136;2023-03-14T02:33:13;10.20;99.90
31113;DHT22;17763;48.730;9.136;2023-03-14T02:35:58;10.20;99.90
31113;DHT22;17763;48.730;9.136;2023-03-14T02:38:31;10.30;99.90
31113;DHT22;17763;48.730;9.136;2023-03-14T02:40:59;10.30;99.90
31113;DHT22;17763;48.730;9.136;2023-03-14T02:43:25;10.30;99.90
31113;DHT22;17763;48.730;9.136;2023-03-14T02:45:51;10.20;99.90
31113;DHT22;17763;48.730;9.136;2023-03-14T02:48:29;10.20;99.90
31113;DHT22;17763;48.730;9.136;2023-03-14T02:50:59;10.30;99.90
31113;DHT22;17763;48.730;9.136;2023-03-14T02:53:30;10.10;99.90
31113;DHT22;17763;48.730;9.136;2023-03-14T02:55:56;10.10;99.90
31113;DHT22;17763;48.730;9.136;2023-03-14T02:58:22;10.10;99.90
31113;DHT22;17763;48.730;9.136;2023-03-14T03:00:49;10.10;99.90
31113;DHT22;17763;48.730;9.136;2023-03-14T03:03:15;10.10;99.90
31113;DHT22;17763;48.730;9.136;2023-03-14T03:05:41;10.10;99.90
31113;DHT22;17763;48.730;9.136;2023-03-14T03:08:08;10.00;99.90
31113;DHT22;17763;48.730;9.136;2023-03-14T03:10:34;10.00;99.90
31113;DHT22;17763;48.730;9.136;2023-03-14T03:13:00;10.00;99.90
31113;DHT22;17763;48.730;9.136;2023-03-14T03:15:26;10.00;99.90
31113;DHT22;17763;48.730;9.136;2023-03-14T03:17:51;10.00;99.90
31113;DHT22;17763;48.730;9.136;2023-03-14T03:20:17;9.90;99.90
31113;DHT22;17763;48.730;9.136;2023-03-14T03:22:47;10.00;99.90
31113;DHT22;17763;48.730;9.136;2023-03-14T03:25:15;9.90;99.90
31113;DHT22;17763;48.730;9.136;2023-03-14T03:27:41;9.80;99.90
31113;DHT22;17763;48.730;9.136;2023-03-14T03:30:07;9.80;99.90
31113;DHT22;17763;48.730;9.136;2023-03-14T03:32:33;9.80;99.90
31113;DHT22;17763;48.730;9.136;2023-03-14T03:34:58;9.80;99.90
31113;DHT22;17763;48.730;9.136;2023-03-14T03:37:24;9.90;99.90
31113;DHT22;17763;48.730;9.136;2023-03-14T03:39:50;9.70;99.90
31113;DHT22;17763;48.730;9.136;2023-03-14T03:42:17;9.70;99.90
31113;DHT22;17763;48.730;9.136;2023-03-14T03:44:43;9.70;99.90
31113;DHT22;17763;48.730;9.136;2023-03-14T03:47:09;9.70;99.90
31113;DHT22;17763;48.730;9.136;2023-03-14T03:49:37;9.70;99.90
31113;DHT22;17763;48.730;9.136;2023-03-14T03:52:02;9.70;99.90
31113;DHT22;17763;48.730;9.136;2023-03-14T03:54:28;9.60;99.90
31113;DHT22;17763;48.730;9.136;2023-03-14T03:56:57;9.70;99.90
31113;DHT22;17763;48.730;9.136;2023-03-14T03:59:22;9.60;99.90
31113;DHT22;17763;48.730;9.136;2023-03-14T04:01:50;9.50;99.90
31113;DHT22;17763;48.730;9.136;2023-03-14T04:04:16;9.50;99.90
31113;DHT22;17763;48.730;9.136;2023-03-14T04:06:42;9.70;99.90
31113;DHT22;17763;48.730;9.136;2023-03-14T04:09:09;9.50;99.90
31113;DHT22;17763;48.730;9.136;2023-03-14T04:11:37;9.50;99.90
31113;DHT22;17763;48.730;9.136;2023-03-14T04:14:03;9.50;99.90
31113;DHT22;17763;48.730;9.136;2023-03-14T04:16:32;9.50;99.90
31113;DHT22;17763;48.730;9.136;2023-03-14T04:19:00;9.50;99.90
31113;DHT22;17763;48.730;9.136;2023-03-14T04:21:26;9.60;99.90
31113;DHT22;17763;48.730;9.136;2023-03-14T04:23:52;9.50;99.90
31113;DHT22;17763;48.730;9.136;2023-03-14T04:26:17;9.50;99.90
31113;DHT22;17763;48.730;9.136;2023-03-14T04:28:43;9.50;99.90
31113;DHT22;17763;48.730;9.136;2023-03-14T04:31:15;9.40;99.90
31113;DHT22;17763;48.730;9.136;2023-03-14T04:33:41;9.40;99.90
31113;DHT22;17763;48.730;9.136;2023-03-14T04:36:07;9.40;99.90
31113;DHT22;17763;48.730;9.136;2023-03-14T04:38:34;9.40;99.90
31113;DHT22;17763;48.730;9.136;2023-03-14T04:41:02;9.40;99.90
31113;DHT22;17763;48.730;9.136;2023-03-14T04:43:28;9.40;99.90
31113;DHT22;17763;48.730;9.136;2023-03-14T04:45:55;9.40;99.90
31113;DHT22;17763;48.730;9.136;2023-03-14T04:48:21;9.30;99.90
31113;DHT22;17763;48.730;9.136;2023-03-14T04:50:50;9.30;99.90
31113;DHT22;17763;48.730;9.136;2023-03-14T04:53:16;9.30;99.90
31113;DHT22;17763;48.730;9.136;2023-03-14T04:55:46;9.30;99.90
31113;DHT22;17763;48.730;9.136;2023-03-14T04:58:12;9.30;99.90
31113;DHT22;17763;48.730;9.136;2023-03-14T05:00:38;9.30;99.90
31113;DHT22;17763;48.730;9.136;2023-03-14T05:03:03;9.30;99.90
31113;DHT22;17763;48.730;9.136;2023-03-14T05:05:29;9.20;99.90
31113;DHT22;17763;48.730;9.136;2023-03-14T05:07:55;9.20;99.90
31113;DHT22;17763;48.730;9.136;2023-03-14T05:10:20;9.20;99.90
31113;DHT22;17763;48.730;9.136;2023-03-14T05:12:46;9.20;99.90
31113;DHT22;17763;48.730;9.136;2023-03-14T05:15:12;9.20;99.90
31113;DHT22;17763;48.730;9.136;2023-03-14T05:17:37;9.20;99.90
31113;DHT22;17763;48.730;9.136;2023-03-14T05:20:04;9.20;99.90
31113;DHT22;17763;48.730;9.136;2023-03-14T05:22:39;9.20;99.90
31113;DHT22;17763;48.730;9.136;2023-03-14T05:25:05;9.20;99.90
31113;DHT22;17763;48.730;9.136;2023-03-14T05:27:36;9.20;99.90
31113;DHT22;17763;48.730;9.136;2023-03-14T05:30:03;9.20;99.90
31113;DHT22;17763;48.730;9.136;2023-03-14T05:32:29;9.20;99.90
31113;DHT22;17763;48.730;9.136;2023-03-14T05:34:55;9.20;99.90
31113;DHT22;17763;48.730;9.136;2023-03-14T05:37:27;9.20;99.90
31113;DHT22;17763;48.730;9.136;2023-03-14T05:39:53;9.20;99.90
31113;DHT22;17763;48.730;9.136;2023-03-14T05:42:19;9.20;99.90
31113;DHT22;17763;48.730;9.136;2023-03-14T05:44:47;9.30;99.90
31113;DHT22;17763;48.730;9.136;2023-03-14T05:47:13;9.20;99.90
31113;DHT22;17763;48.730;9.136;2023-03-14T05:49:39;9.20;99.90
31113;DHT22;17763;48.730;9.136;2023-03-14T05:52:04;9.30;99.90
31113;DHT22;17763;48.730;9.136;2023-03-14T05:54:30;9.30;99.90
31113;DHT22;17763;48.730;9.136;2023-03-14T05:56:58;9.30;99.90
31113;DHT22;17763;48.730;9.136;2023-03-14T05:59:24;9.30;99.90
31113;DHT22;17763;48.730;9.136;2023-03-14T06:01:49;9.30;99.90
31113;DHT22;17763;48.730;9.136;2023-03-14T06:04:15;9.40;99.90
31113;DHT22;17763;48.730;9.136;2023-03-14T06:06:41;9.30;99.90
31113;DHT22;17763;48.730;9.136;2023-03-14T06:09:07;9.30;99.90
31113;DHT22;17763;48.730;9.136;2023-03-14T06:11:32;9.30;99.90
31113;DHT22;17763;48.730;9.136;2023-03-14T06:13:58;9.30;99.90
31113;DHT22;17763;48.730;9.136;2023-03-14T06:16:24;9.30;99.90
31113;DHT22;17763;48.730;9.136;2023-03-14T06:18:49;9.30;99.90
31113;DHT22;17763;48.730;9.136;2023-03-14T06:21:15;9.30;99.90
31113;DHT22;17763;48.730;9.136;2023-03-14T06:23:41;9.30;99.90
31113;DHT22;17763;48.730;9.136;2023-03-14T06:26:07;9.30;99.90
31113;DHT22;17763;48.730;9.136;2023-03-14T06:28:32;9.30;99.90
31113;DHT22;17763;48.730;9.136;2023-03-14T06:31:01;9.30;99.90
31113;DHT22;17763;48.730;9.136;2023-03-14T06:33:30;9.30;99.90
31113;DHT22;17763;48.730;9.136;2023-03-14T06:35:55;9.40;99.90
31113;DHT22;17763;48.730;9.136;2023-03-14T06:38:21;9.30;99.90
31113;DHT22;17763;48.730;9.136;2023-03-14T06:40:47;9.30;99.90
31113;DHT22;17763;48.730;9.136;2023-03-14T06:43:15;9.30;99.90
31113;DHT22;17763;48.730;9.136;2023-03-14T06:45:40;9.60;99.90
31113;DHT22;17763;48.730;9.136;2023-03-14T06:48:06;9.40;99.90
31113;DHT22;17763;48.730;9.136;2023-03-14T06:50:31;9.40;99.90
31113;DHT22;17763;48.730;9.136;2023-03-14T06:52:57;9.50;99.90
31113;DHT22;17763;48.730;9.136;2023-03-14T06:55:23;9.50;99.90
31113;DHT22;17763;48.730;9.136;2023-03-14T06:57:49;9.40;99.90
31113;DHT22;17763;48.730;9.136;2023-03-14T07:00:14;9.50;99.90
31113;DHT22;17763;48.730;9.136;2023-03-14T07:02:40;9.50;99.90
31113;DHT22;17763;48.730;9.136;2023-03-14T07:05:06;9.60;99.90
31113;DHT22;17763;48.730;9.136;2023-03-14T07:07:34;9.60;99.90
31113;DHT22;17763;48.730;9.136;2023-03-14T07:10:00;9.60;99.90
31113;DHT22;17763;48.730;9.136;2023-03-14T07:12:26;9.60;99.90
31113;DHT22;17763;48.730;9.136;2023-03-14T07:14:51;9.60;99.90
31113;DHT22;17763;48.730;9.136;2023-03-14T07:17:17;9.70;99.90
31113;DHT22;17763;48.730;9.136;2023-03-14T07:19:43;9.70;99.90
31113;DHT22;17763;48.730;9.136;2023-03-14T07:22:08;9.70;99.90
31113;DHT22;17763;48.730;9.136;2023-03-14T07:24:34;9.70;99.90
31113;DHT22;17763;48.730;9.136;2023-03-14T07:27:02;9.80;99.90
31113;DHT22;17763;48.730;9.136;2023-03-14T07:29:27;9.80;99.90
31113;DHT22;17763;48.730;9.136;2023-03-14T07:31:53;9.80;99.90
31113;DHT22;17763;48.730;9.136;2023-03-14T07:34:19;9.90;99.90
31113;DHT22;17763;48.730;9.136;2023-03-14T07:36:44;9.90;99.90
31113;DHT22;17763;48.730;9.136;2023-03-14T07:39:10;10.00;99.90
31113;DHT22;17763;48.730;9.136;2023-03-14T07:41:36;10.00;99.90
31113;DHT22;17763;48.730;9.136;2023-03-14T07:44:01;10.00;99.90
31113;DHT22;17763;48.730;9.136;2023-03-14T07:46:27;10.00;99.90
31113;DHT22;17763;48.730;9.136;2023-03-14T07:48:53;10.10;99.90
31113;DHT22;17763;48.730;9.136;2023-03-14T07:51:20;10.10;99.90
31113;DHT22;17763;48.730;9.136;2023-03-14T07:53:48;10.10;99.90
31113;DHT22;17763;48.730;9.136;2023-03-14T07:56:16;10.20;99.90
31113;DHT22;17763;48.730;9.136;2023-03-14T07:58:42;10.20;99.90
31113;DHT22;17763;48.730;9.136;2023-03-14T08:01:08;10.20;99.90
31113;DHT22;17763;48.730;9.136;2023-03-14T08:03:33;10.30;99.90
31113;DHT22;17763;48.730;9.136;2023-03-14T08:05:59;10.30;99.90
31113;DHT22;17763;48.730;9.136;2023-03-14T08:08:25;10.30;99.90
31113;DHT22;17763;48.730;9.136;2023-03-14T08:10:50;10.30;99.90
31113;DHT22;17763;48.730;9.136;2023-03-14T08:13:19;10.40;99.90
31113;DHT22;17763;48.730;9.136;2023-03-14T08:15:48;10.40;99.90
31113;DHT22;17763;48.730;9.136;2023-03-14T08:18:13;10.40;99.90
31113;DHT22;17763;48.730;9.136;2023-03-14T08:20:39;10.50;99.90
31113;DHT22;17763;48.730;9.136;2023-03-14T08:23:05;10.50;99.90
31113;DHT22;17763;48.730;9.136;2023-03-14T08:25:30;10.60;99.90
31113;DHT22;17763;48.730;9.136;2023-03-14T08:27:57;10.80;99.90
31113;DHT22;17763;48.730;9.136;2023-03-14T08:30:22;10.70;99.90
31113;DHT22;17763;48.730;9.136;2023-03-14T08:32:48;10.80;99.90
31113;DHT22;17763;48.730;9.136;2023-03-14T08:35:14;10.90;99.90
31113;DHT22;17763;48.730;9.136;2023-03-14T08:37:43;10.90;99.90
31113;DHT22;17763;48.730;9.136;2023-03-14T08:40:09;11.00;99.90
31113;DHT22;17763;48.730;9.136;2023-03-14T08:42:36;11.10;99.90
31113;DHT22;17763;48.730;9.136;2023-03-14T08:45:03;11.10;99.90
31113;DHT22;17763;48.730;9.136;2023-03-14T08:47:31;11.10;99.90
31113;DHT22;17763;48.730;9.136;2023-03-14T08:49:56;11.10;99.90
31113;DHT22;17763;48.730;9.136;2023-03-14T08:52:22;11.10;99.90
31113;DHT22;17763;48.730;9.136;2023-03-14T08:54:48;11.20;99.90
31113;DHT22;17763;48.730;9.136;2023-03-14T08:57:14;11.10;99.90
31113;DHT22;17763;48.730;9.136;2023-03-14T08:59:40;11.20;99.90
31113;DHT22;17763;48.730;9.136;2023-03-14T09:02:05;11.20;99.90
31113;DHT22;17763;48.730;9.136;2023-03-14T09:04:32;11.20;99.90
31113;DHT22;17763;48.730;9.136;2023-03-14T09:06:59;11.30;99.90
31113;DHT22;17763;48.730;9.136;2023-03-14T09:09:25;11.30;99.90
31113;DHT22;17763;48.730;9.136;2023-03-14T09:11:54;11.30;99.90
31113;DHT22;17763;48.730;9.136;2023-03-14T09:14:20;11.30;99.90
31113;DHT22;17763;48.730;9.136;2023-03-14T09:16:46;11.20;99.90
31113;DHT22;17763;48.730;9.136;2023-03-14T09:19:11;11.30;99.90
31113;DHT22;17763;48.730;9.136;2023-03-14T09:21:37;11.20;99.90
31113;DHT22;17763;48.730;9.136;2023-03-14T09:24:04;11.20;99.90
31113;DHT22;17763;48.730;9.136;2023-03-14T09:26:33;11.20;99.90
31113;DHT22;17763;48.730;9.136;2023-03-14T09:28:58;11.20;99.90
31113;DHT22;17763;48.730;9.136;2023-03-14T09:31:24;11.20;99.90
31113;DHT22;17763;48.730;9.136;2023-03-14T09:33:50;11.20;99.90
31113;DHT22;17763;48.730;9.136;2023-03-14T09:36:15;11.30;99.90
31113;DHT22;17763;48.730;9.136;2023-03-14T09:38:42;11.30;99.90
31113;DHT22;17763;48.730;9.136;2023-03-14T09:41:25;11.30;99.90
31113;DHT22;17763;48.730;9.136;2023-03-14T09:46:39;11.30;99.90
31113;DHT22;17763;48.730;9.136;2023-03-14T09:49:28;11.30;99.90
31113;DHT22;17763;48.730;9.136;2023-03-14T09:51:58;11.20;99.90
31113;DHT22;17763;48.730;9.136;2023-03-14T09:57:05;11.10;99.90
31113;DHT22;17763;48.730;9.136;2023-03-14T09:59:37;11.10;99.90
31113;DHT22;17763;48.730;9.136;2023-03-14T10:02:19;11.10;99.90
31113;DHT22;17763;48.730;9.136;2023-03-14T10:04:47;11.10;99.90
31113;DHT22;17763;48.730;9.136;2023-03-14T10:07:16;11.00;99.90
31113;DHT22;17763;48.730;9.136;2023-03-14T10:09:44;11.10;99.90
31113;DHT22;17763;48.730;9.136;2023-03-14T10:12:10;11.10;99.90
31113;DHT22;17763;48.730;9.136;2023-03-14T10:14:45;11.10;99.90
31113;DHT22;17763;48.730;9.136;2023-03-14T10:17:13;11.10;99.90
31113;DHT22;17763;48.730;9.136;2023-03-14T10:23:05;11.20;99.90
31113;DHT22;17763;48.730;9.136;2023-03-14T10:25:36;11.30;99.90
31113;DHT22;17763;48.730;9.136;2023-03-14T10:28:04;11.30;99.90
31113;DHT22;17763;48.730;9.136;2023-03-14T10:30:37;11.30;99.90
31113;DHT22;17763;48.730;9.136;2023-03-14T10:35:46;11.50;99.90
31113;DHT22;17763;48.730;9.136;2023-03-14T10:38:14;11.60;99.90
31113;DHT22;17763;48.730;9.136;2023-03-14T10:40:46;11.60;99.90
31113;DHT22;17763;48.730;9.136;2023-03-14T10:43:17;11.60;99.90
31113;DHT22;17763;48.730;9.136;2023-03-14T10:46:02;11.60;99.90
31113;DHT22;17763;48.730;9.136;2023-03-14T10:48:32;11.60;99.90
31113;DHT22;17763;48.730;9.136;2023-03-14T10:56:18;11.60;99.90
31113;DHT22;17763;48.730;9.136;2023-03-14T10:58:49;11.60;99.90
31113;DHT22;17763;48.730;9.136;2023-03-14T11:23:24;11.20;99.90
31113;DHT22;17763;48.730;9.136;2023-03-14T11:29:28;11.20;99.90
31113;DHT22;17763;48.730;9.136;2023-03-14T11:31:58;11.20;99.90
31113;DHT22;17763;48.730;9.136;2023-03-14T11:37:28;11.10;99.90
31113;DHT22;17763;48.730;9.136;2023-03-14T11:40:14;11.00;99.90
31113;DHT22;17763;48.730;9.136;2023-03-14T11:42:44;10.90;99.90
31113;DHT22;17763;48.730;9.136;2023-03-14T11:45:22;10.90;99.90
31113;DHT22;17763;48.730;9.136;2023-03-14T11:48:06;10.90;99.90
31113;DHT22;17763;48.730;9.136;2023-03-14T11:50:33;10.90;99.90
31113;DHT22;17763;48.730;9.136;2023-03-14T11:55:54;10.80;99.90
31113;DHT22;17763;48.730;9.136;2023-03-14T11:58:33;10.80;99.90
31113;DHT22;17763;48.730;9.136;2023-03-14T12:01:11;10.70;99.90
31113;DHT22;17763;48.730;9.136;2023-03-14T12:03:53;10.70;99.90
31113;DHT22;17763;48.730;9.136;2023-03-14T12:08:58;10.70;99.90
31113;DHT22;17763;48.730;9.136;2023-03-14T12:11:59;10.70;99.90
31113;DHT22;17763;48.730;9.136;2023-03-14T12:14:27;10.70;99.90
31113;DHT22;17763;48.730;9.136;2023-03-14T12:16:56;10.60;99.90
31113;DHT22;17763;48.730;9.136;2023-03-14T12:21:57;10.60;99.90
31113;DHT22;17763;48.730;9.136;2023-03-14T12:24:30;10.60;99.90
31113;DHT22;17763;48.730;9.136;2023-03-14T12:27:01;10.50;99.90
31113;DHT22;17763;48.730;9.136;2023-03-14T12:29:30;10.40;99.90
31113;DHT22;17763;48.730;9.136;2023-03-14T12:32:23;10.40;99.90
31113;DHT22;17763;48.730;9.136;2023-03-14T12:34:49;10.40;99.90
31113;DHT22;17763;48.730;9.136;2023-03-14T12:40:06;10.30;99.90
31113;DHT22;17763;48.730;9.136;2023-03-14T12:42:41;10.10;99.90
31113;DHT22;17763;48.730;9.136;2023-03-14T12:45:22;10.10;99.90
31113;DHT22;17763;48.730;9.136;2023-03-14T12:48:01;10.00;99.90
31113;DHT22;17763;48.730;9.136;2023-03-14T12:50:54;10.00;99.90
31113;DHT22;17763;48.730;9.136;2023-03-14T12:56:11;9.90;99.90
31113;DHT22;17763;48.730;9.136;2023-03-14T13:01:25;9.90;99.90
31113;DHT22;17763;48.730;9.136;2023-03-14T13:12:09;9.50;95.50
31113;DHT22;17763;48.730;9.136;2023-03-14T13:14:40;9.50;94.30
31113;DHT22;17763;48.730;9.136;2023-03-14T13:17:14;9.50;93.90
31113;DHT22;17763;48.730;9.136;2023-03-14T13:19:40;9.40;93.50
31113;DHT22;17763;48.730;9.136;2023-03-14T13:22:25;9.40;93.50
31113;DHT22;17763;48.730;9.136;2023-03-14T13:25:00;9.40;92.50
31113;DHT22;17763;48.730;9.136;2023-03-14T13:27:29;9.40;91.20
31113;DHT22;17763;48.730;9.136;2023-03-14T13:29:57;9.40;90.10
31113;DHT22;17763;48.730;9.136;2023-03-14T13:32:30;9.40;90.20
31113;DHT22;17763;48.730;9.136;2023-03-14T13:34:57;9.30;87.90
31113;DHT22;17763;48.730;9.136;2023-03-14T13:37:24;9.30;89.20
31113;DHT22;17763;48.730;9.136;2023-03-14T13:39:55;9.30;87.60
31113;DHT22;17763;48.730;9.136;2023-03-14T13:42:29;9.20;86.30
31113;DHT22;17763;48.730;9.136;2023-03-14T13:44:56;9.20;85.20
31113;DHT22;17763;48.730;9.136;2023-03-14T13:47:25;9.10;83.90
31113;DHT22;17763;48.730;9.136;2023-03-14T13:49:52;9.10;84.60
31113;DHT22;17763;48.730;9.136;2023-03-14T13:54:48;8.90;84.70
31113;DHT22;17763;48.730;9.136;2023-03-14T13:57:17;8.90;85.00
31113;DHT22;17763;48.730;9.136;2023-03-14T13:59:43;8.90;82.70
31113;DHT22;17763;48.730;9.136;2023-03-14T14:02:15;8.80;83.00
31113;DHT22;17763;48.730;9.136;2023-03-14T14:04:41;8.80;80.00
31113;DHT22;17763;48.730;9.136;2023-03-14T14:07:14;8.90;79.90
31113;DHT22;17763;48.730;9.136;2023-03-14T14:09:48;8.80;80.50
31113;DHT22;17763;48.730;9.136;2023-03-14T14:17:20;8.60;72.30
31113;DHT22;17763;48.730;9.136;2023-03-14T14:19:47;8.50;72.40
31113;DHT22;17763;48.730;9.136;2023-03-14T14:22:13;8.50;73.60
31113;DHT22;17763;48.730;9.136;2023-03-14T14:24:39;8.50;72.10
31113;DHT22;17763;48.730;9.136;2023-03-14T14:30:02;8.40;74.10
31113;DHT22;17763;48.730;9.136;2023-03-14T14:32:38;8.40;73.80
31113;DHT22;17763;48.730;9.136;2023-03-14T14:35:06;8.50;74.30
31113;DHT22;17763;48.730;9.136;2023-03-14T14:37:34;8.50;73.80
31113;DHT22;17763;48.730;9.136;2023-03-14T14:40:20;8.50;74.20
31113;DHT22;17763;48.730;9.136;2023-03-14T14:42:48;8.40;74.00
31113;DHT22;17763;48.730;9.136;2023-03-14T14:45:22;8.40;74.30
31113;DHT22;17763;48.730;9.136;2023-03-14T14:53:31;8.40;75.00
31113;DHT22;17763;48.730;9.136;2023-03-14T14:56:04;8.40;74.60
31113;DHT22;17763;48.730;9.136;2023-03-14T14:58:36;8.50;74.60
31113;DHT22;17763;48.730;9.136;2023-03-14T15:01:15;8.50;74.60
31113;DHT22;17763;48.730;9.136;2023-03-14T15:03:43;8.50;74.60
31113;DHT22;17763;48.730;9.136;2023-03-14T15:06:12;8.50;74.80
31113;DHT22;17763;48.730;9.136;2023-03-14T15:08:41;8.50;75.20
31113;DHT22;17763;48.730;9.136;2023-03-14T15:11:25;8.50;75.10
31113;DHT22;17763;48.730;9.136;2023-03-14T15:13:51;8.60;75.20
31113;DHT22;17763;48.730;9.136;2023-03-14T15:16:20;8.60;74.90
31113;DHT22;17763;48.730;9.136;2023-03-14T15:18:53;8.70;74.60
31113;DHT22;17763;48.730;9.136;2023-03-14T15:21:21;8.70;74.50
31113;DHT22;17763;48.730;9.136;2023-03-14T15:23:47;8.80;73.00
31113;DHT22;17763;48.730;9.136;2023-03-14T15:26:16;8.80;72.40
31113;DHT22;17763;48.730;9.136;2023-03-14T15:28:42;8.80;72.50
31113;DHT22;17763;48.730;9.136;2023-03-14T15:31:10;8.80;72.50
31113;DHT22;17763;48.730;9.136;2023-03-14T15:33:38;8.80;72.50
31113;DHT22;17763;48.730;9.136;2023-03-14T15:36:06;8.80;72.30
31113;DHT22;17763;48.730;9.136;2023-03-14T15:38:32;8.80;72.90
31113;DHT22;17763;48.730;9.136;2023-03-14T15:40:58;8.80;73.50
31113;DHT22;17763;48.730;9.136;2023-03-14T15:43:25;8.70;73.30
31113;DHT22;17763;48.730;9.136;2023-03-14T15:45:51;8.80;73.60
31113;DHT22;17763;48.730;9.136;2023-03-14T15:48:21;8.80;73.60
31113;DHT22;17763;48.730;9.136;2023-03-14T15:50:46;8.70;73.10
31113;DHT22;17763;48.730;9.136;2023-03-14T15:53:13;8.70;73.60
31113;DHT22;17763;48.730;9.136;2023-03-14T15:55:41;8.80;74.20
31113;DHT22;17763;48.730;9.136;2023-03-14T15:58:17;8.80;73.80
31113;DHT22;17763;48.730;9.136;2023-03-14T16:00:43;8.80;74.10
31113;DHT22;17763;48.730;9.136;2023-03-14T16:03:09;8.70;73.20
31113;DHT22;17763;48.730;9.136;2023-03-14T16:05:38;8.70;73.40
31113;DHT22;17763;48.730;9.136;2023-03-14T16:08:04;8.60;73.60
31113;DHT22;17763;48.730;9.136;2023-03-14T16:10:30;8.60;74.00
31113;DHT22;17763;48.730;9.136;2023-03-14T16:12:56;8.50;74.30
31113;DHT22;17763;48.730;9.136;2023-03-14T16:15:24;8.40;74.70
31113;DHT22;17763;48.730;9.136;2023-03-14T16:17:53;8.50;75.00
31113;DHT22;17763;48.730;9.136;2023-03-14T16:20:19;8.50;74.90
31113;DHT22;17763;48.730;9.136;2023-03-14T16:22:45;8.40;74.80
31113;DHT22;17763;48.730;9.136;2023-03-14T16:25:11;8.40;75.10
31113;DHT22;17763;48.730;9.136;2023-03-14T16:27:37;8.40;75.30
31113;DHT22;17763;48.730;9.136;2023-03-14T16:30:03;8.50;75.60
31113;DHT22;17763;48.730;9.136;2023-03-14T16:32:30;8.50;75.60
31113;DHT22;17763;48.730;9.136;2023-03-14T16:34:55;8.50;75.30
31113;DHT22;17763;48.730;9.136;2023-03-14T16:37:24;8.50;75.10
31113;DHT22;17763;48.730;9.136;2023-03-14T16:39:52;8.40;74.90
31113;DHT22;17763;48.730;9.136;2023-03-14T16:42:18;8.40;75.30
31113;DHT22;17763;48.730;9.136;2023-03-14T16:44:44;8.40;75.40
31113;DHT22;17763;48.730;9.136;2023-03-14T16:47:10;8.40;75.60
31113;DHT22;17763;48.730;9.136;2023-03-14T16:49:36;8.40;75.50
31113;DHT22;17763;48.730;9.136;2023-03-14T16:52:01;8.40;75.80
31113;DHT22;17763;48.730;9.136;2023-03-14T16:54:27;8.40;75.90
31113;DHT22;17763;48.730;9.136;2023-03-14T16:56:53;8.40;76.10
31113;DHT22;17763;48.730;9.136;2023-03-14T16:59:19;8.40;76.00
31113;DHT22;17763;48.730;9.136;2023-03-14T17:01:45;8.40;76.10
31113;DHT22;17763;48.730;9.136;2023-03-14T17:04:10;8.40;76.20
31113;DHT22;17763;48.730;9.136;2023-03-14T17:06:37;8.50;76.60
31113;DHT22;17763;48.730;9.136;2023-03-14T17:09:03;8.50;76.60
31113;DHT22;17763;48.730;9.136;2023-03-14T17:11:29;8.40;76.50
31113;DHT22;17763;48.730;9.136;2023-03-14T17:14:00;8.40;77.00
31113;DHT22;17763;48.730;9.136;2023-03-14T17:16:27;8.40;77.50